Igor I Sikorsky Memorial Airport
KBDR : now visible

Airfield :











YOU CAN JOIN US ON...

 
LOGIN :

Register | Disclaimer

   EN    FR    IT 

 









Legend :    VFR   Marginal VFR   IFR   Intensive IFR   Very Intensive IFR
Visi :
Ceiling :
>= 8 km
>= 3000ft
5 to 8 km
1000 to 3000 ft
1500m to 5 km
500 to 1000 ft
800 to 1500m
200 to 500 ft
< 800m
< 200 ft
Symbols :   Thunderstorms  Fog  Heavy snow  Heavy precipitations  Wind > 20 kt






- Airport Elevation : 9 ft
- IATA code : BDR


KBDR - Igor I Sikorsky Memorial

CURRENT METAR :
  • 220117Z 20005KT 2 1/2SM BR OVC003 19/18 A3023 RMK AO2 T01890183 $

EXPIRED METARs :
  • 220112Z 20006KT 4SM BR OVC002 19/18 A3023 RMK AO2 T01890183 $
  • 220052Z 20006KT 2SM BR OVC002 19/18 A3023 RMK AO2 SLP237 T01890183 $
  • 220035Z 20006KT 2 1/2SM BR OVC003 19/18 A3024 RMK AO2 CIG 002V005 T01890178 $
  • 212352Z 19006KT 10SM OVC008 19/18 A3024 RMK AO2 SLP239 T01940178 10211 20189 53005 $
  • 212252Z VRB03KT 10SM OVC009 19/18 A3023 RMK AO2 SLP235 T01940178 $

TAF KBDR
Valid from the 22 at 00:00 until the 23 at 00:00 UTC


212341Z 2200/2224 13003KT P6SM OVC009
TEMPO 2200/2202 6SM BR OVC003
FM220200 20004KT 3/4SM BR OVC003
FM220600 VRB02KT 1/2SM FG OVC002
FM221300 33002KT 1 1/2SM BR BKN006
FM221500 04003KT P6SM SCT006 BKN015
FM221800 10004KT P6SM SCT015 SCT040
KZBW FIR / North America



MET'MAP, your aeronautical weather chart ! - Copyright ORBIFLY December 2007 - Disclaimer

ORBIFLY MET'MAP TEAM :

Programming & Development : Alexandra Zaïnal
Concept & original design : Baudouin d'Aumeries
Assistance for programming : Marc-Olivier Méhu
Technical & hardware support : Manuel Goepfert

Contact : metmap@orbifly.com




SOURCES & CREDITS :

   NOAA       Earth
Advisory